createdAt,value
2022-12-13T00:02:03.626Z,-12.80
2022-12-13T00:04:50.165Z,-12.90
2022-12-13T00:07:36.685Z,-12.90
2022-12-13T00:10:23.207Z,-12.90
2022-12-13T00:13:09.758Z,-12.90
2022-12-13T00:15:56.282Z,-12.90
2022-12-13T00:18:42.806Z,-13.00
2022-12-13T00:21:30.300Z,-13.10
2022-12-13T00:24:16.851Z,-13.20
2022-12-13T00:27:03.360Z,-13.20
2022-12-13T00:29:49.913Z,-13.20
2022-12-13T00:32:36.436Z,-13.20
2022-12-13T00:35:22.991Z,-13.20
2022-12-13T00:38:09.523Z,-13.20
2022-12-13T00:40:56.075Z,-13.40
2022-12-13T00:43:42.579Z,-13.50
2022-12-13T00:46:29.287Z,-13.50
2022-12-13T00:49:15.861Z,-13.60
2022-12-13T00:52:02.358Z,-13.60
2022-12-13T00:54:48.870Z,-13.70
2022-12-13T00:57:35.414Z,-13.70
2022-12-13T01:00:21.935Z,-13.70
2022-12-13T01:03:08.516Z,-13.60
2022-12-13T01:09:01.594Z,-13.60
2022-12-13T01:11:48.105Z,-13.60
2022-12-13T01:14:34.643Z,-13.60
2022-12-13T01:17:21.156Z,-13.70
2022-12-13T01:20:08.739Z,-13.60
2022-12-13T01:22:55.247Z,-13.60
2022-12-13T01:25:41.782Z,-13.60
2022-12-13T01:28:28.297Z,-13.60
2022-12-13T01:31:14.909Z,-13.60
2022-12-13T01:34:01.512Z,-13.70
2022-12-13T01:36:48.064Z,-13.70
2022-12-13T01:39:38.067Z,-13.80
2022-12-13T01:42:25.228Z,-13.80
2022-12-13T01:45:11.753Z,-13.90
2022-12-13T01:47:58.360Z,-13.90
2022-12-13T01:50:44.945Z,-13.80
2022-12-13T01:53:31.492Z,-13.80
2022-12-13T01:56:18.034Z,-13.80
2022-12-13T01:59:04.581Z,-13.80
2022-12-13T02:01:51.092Z,-13.80
2022-12-13T02:04:43.723Z,-13.90
2022-12-13T02:07:31.050Z,-13.90
2022-12-13T02:10:17.624Z,-14.00
2022-12-13T02:13:04.141Z,-14.00
2022-12-13T02:15:50.708Z,-14.00
2022-12-13T02:18:37.245Z,-14.10
2022-12-13T02:21:23.793Z,-14.10
2022-12-13T02:24:10.309Z,-14.20
2022-12-13T02:26:56.907Z,-14.30
2022-12-13T02:29:43.460Z,-14.40
2022-12-13T02:32:29.992Z,-14.40
2022-12-13T02:35:16.782Z,-14.40
2022-12-13T02:38:03.577Z,-14.40
2022-12-13T02:40:50.075Z,-14.40
2022-12-13T02:43:36.615Z,-14.30
2022-12-13T02:46:32.075Z,-14.30
2022-12-13T02:49:18.659Z,-14.30
2022-12-13T02:52:05.123Z,-14.30
2022-12-13T02:54:51.637Z,-14.30
2022-12-13T02:57:38.139Z,-14.30
2022-12-13T03:00:25.693Z,-14.30
2022-12-13T03:03:12.338Z,-14.30
2022-12-13T03:05:58.989Z,-14.40
2022-12-13T03:08:45.498Z,-14.40
2022-12-13T03:11:32.051Z,-14.40
2022-12-13T03:14:18.561Z,-14.40
2022-12-13T03:17:05.088Z,-14.40
2022-12-13T03:19:51.592Z,-14.60
2022-12-13T03:22:38.092Z,-14.60
2022-12-13T03:25:31.212Z,-14.60
2022-12-13T03:28:18.819Z,-14.60
2022-12-13T03:31:05.427Z,-14.80
2022-12-13T03:33:51.953Z,-14.80
2022-12-13T03:36:38.476Z,-14.80
2022-12-13T03:39:25.005Z,-14.70
2022-12-13T03:42:11.515Z,-14.70
2022-12-13T03:44:58.036Z,-14.70
2022-12-13T03:47:44.511Z,-14.70
2022-12-13T03:50:31.035Z,-14.60
2022-12-13T03:53:22.177Z,-14.60
2022-12-13T03:56:10.040Z,-14.70
2022-12-13T03:58:56.564Z,-14.70
2022-12-13T04:01:43.137Z,-14.60
2022-12-13T04:04:29.692Z,-14.60
2022-12-13T04:07:22.386Z,-14.70
2022-12-13T04:10:26.441Z,-14.70
2022-12-13T04:13:13.288Z,-14.80
2022-12-13T04:15:59.872Z,-14.70
2022-12-13T04:18:46.406Z,-14.70
2022-12-13T04:21:32.919Z,-14.70
2022-12-13T04:24:20.691Z,-14.70
2022-12-13T04:27:07.200Z,-14.70
2022-12-13T04:29:53.742Z,-14.70
2022-12-13T04:32:40.253Z,-14.70
2022-12-13T04:35:27.783Z,-14.70
2022-12-13T04:38:14.300Z,-14.70
2022-12-13T04:41:00.852Z,-14.70
2022-12-13T04:43:47.359Z,-14.70
2022-12-13T04:46:33.901Z,-14.80
2022-12-13T04:49:20.412Z,-14.80
2022-12-13T04:52:06.952Z,-14.80
2022-12-13T04:54:55.604Z,-14.80
2022-12-13T04:57:42.544Z,-14.70
2022-12-13T05:00:29.064Z,-14.70
2022-12-13T05:03:15.604Z,-14.70
2022-12-13T05:06:02.074Z,-14.70
2022-12-13T05:08:48.622Z,-14.70
2022-12-13T05:11:35.964Z,-14.70
2022-12-13T05:14:23.099Z,-14.70
2022-12-13T05:17:09.911Z,-14.70
2022-12-13T05:19:56.424Z,-14.70
2022-12-13T05:22:42.969Z,-14.70
2022-12-13T05:25:29.468Z,-14.80
2022-12-13T05:28:27.723Z,-14.80
2022-12-13T05:31:22.631Z,-14.80
2022-12-13T05:34:10.250Z,-14.70
2022-12-13T05:36:56.769Z,-14.70
2022-12-13T05:39:43.344Z,-14.70
2022-12-13T05:42:29.861Z,-14.70
2022-12-13T05:45:16.824Z,-14.70
2022-12-13T05:48:03.601Z,-14.70
2022-12-13T05:50:50.149Z,-14.70
2022-12-13T05:53:36.655Z,-14.70
2022-12-13T05:56:23.358Z,-14.70
2022-12-13T05:59:09.972Z,-14.70
2022-12-13T06:01:56.617Z,-14.80
2022-12-13T06:04:45.295Z,-14.80
2022-12-13T06:07:33.185Z,-14.80
2022-12-13T06:10:21.661Z,-14.80
2022-12-13T06:13:22.177Z,-14.90
2022-12-13T06:16:22.837Z,-14.90
2022-12-13T06:19:10.668Z,-14.80
2022-12-13T06:21:57.203Z,-14.80
2022-12-13T06:24:43.761Z,-14.80
2022-12-13T06:27:30.296Z,-14.90
2022-12-13T06:30:17.177Z,-14.90
2022-12-13T06:33:03.682Z,-14.90
2022-12-13T06:35:50.231Z,-14.90
2022-12-13T06:38:43.205Z,-14.90
2022-12-13T06:41:32.195Z,-15.00
2022-12-13T06:44:18.905Z,-14.90
2022-12-13T06:47:11.197Z,-14.90
2022-12-13T06:50:05.568Z,-15.00
2022-12-13T06:52:52.515Z,-14.90
2022-12-13T06:55:40.039Z,-14.90
2022-12-13T06:58:26.543Z,-14.90
2022-12-13T07:01:15.128Z,-15.00
2022-12-13T07:04:29.564Z,-15.00
2022-12-13T07:07:17.378Z,-14.90
2022-12-13T07:10:03.884Z,-14.80
2022-12-13T07:12:50.435Z,-14.80
2022-12-13T07:15:38.046Z,-14.70
2022-12-13T07:18:24.570Z,-14.70
2022-12-13T07:21:21.595Z,-14.70
2022-12-13T07:24:08.924Z,-14.60
2022-12-13T07:26:55.438Z,-14.60
2022-12-13T07:29:42.238Z,-14.50
2022-12-13T07:32:29.010Z,-14.50
2022-12-13T07:35:15.540Z,-14.40
2022-12-13T07:38:02.085Z,-14.40
2022-12-13T07:40:48.623Z,-14.40
2022-12-13T07:43:35.164Z,-14.50
2022-12-13T07:46:32.900Z,-14.50
2022-12-13T07:49:20.399Z,-14.40
2022-12-13T07:52:06.936Z,-14.30
2022-12-13T07:54:53.462Z,-14.30
2022-12-13T07:57:39.984Z,-14.20
2022-12-13T08:00:26.554Z,-14.10
2022-12-13T08:03:24.683Z,-14.00
2022-12-13T08:06:13.044Z,-13.90
2022-12-13T08:09:00.070Z,-13.80
2022-12-13T08:11:46.581Z,-13.80
2022-12-13T08:14:33.103Z,-13.70
2022-12-13T08:17:19.617Z,-13.60
2022-12-13T08:20:06.201Z,-13.60
2022-12-13T08:22:52.717Z,-13.60
2022-12-13T08:25:48.405Z,-13.40
2022-12-13T08:28:35.020Z,-13.30
2022-12-13T08:31:21.523Z,-13.20
2022-12-13T08:34:08.229Z,-13.00
2022-12-13T08:37:02.759Z,-12.80
2022-12-13T08:39:50.060Z,-12.50
2022-12-13T08:42:36.580Z,-12.10
2022-12-13T08:45:23.117Z,-11.80
2022-12-13T08:48:09.655Z,-11.40
2022-12-13T08:50:56.158Z,-11.10
2022-12-13T08:53:42.764Z,-10.80
2022-12-13T08:56:29.425Z,-10.70
2022-12-13T08:59:16.079Z,-10.40
2022-12-13T09:02:05.166Z,-10.30
2022-12-13T09:04:52.006Z,-10.10
2022-12-13T09:07:38.535Z,-9.90
2022-12-13T09:10:26.283Z,-9.80
2022-12-13T09:13:13.927Z,-9.60
2022-12-13T09:16:23.254Z,-9.50
2022-12-13T09:19:25.905Z,-9.30
2022-12-13T09:22:14.669Z,-9.20
2022-12-13T09:25:02.933Z,-9.00
2022-12-13T09:27:49.671Z,-8.90
2022-12-13T09:30:37.222Z,-8.80
2022-12-13T09:33:30.495Z,-8.80
2022-12-13T09:36:17.690Z,-8.60
2022-12-13T09:39:04.188Z,-8.50
2022-12-13T09:41:50.700Z,-8.50
2022-12-13T09:44:43.909Z,-8.40
2022-12-13T09:47:35.023Z,-8.30
2022-12-13T09:50:25.103Z,-8.20
2022-12-13T09:53:21.919Z,-8.10
2022-12-13T09:56:10.933Z,-8.10
2022-12-13T09:58:57.946Z,-8.00
2022-12-13T10:01:44.535Z,-8.00
2022-12-13T10:04:31.134Z,-7.90
2022-12-13T10:07:17.710Z,-7.80
2022-12-13T10:10:04.248Z,-7.70
2022-12-13T10:12:50.793Z,-7.60
2022-12-13T10:15:37.305Z,-7.50
2022-12-13T10:18:24.965Z,-7.40
2022-12-13T10:21:12.523Z,-7.30
2022-12-13T10:24:24.193Z,-7.30
2022-12-13T10:27:05.605Z,-7.20
2022-12-13T10:29:52.152Z,-7.10
2022-12-13T10:32:38.678Z,-7.00
2022-12-13T10:35:25.216Z,-6.90
2022-12-13T10:38:11.727Z,-6.90
2022-12-13T10:40:58.260Z,-6.80
2022-12-13T10:43:47.825Z,-6.80
2022-12-13T10:46:38.508Z,-6.70
2022-12-13T10:49:25.527Z,-6.70
2022-12-13T10:52:12.048Z,-6.60
2022-12-13T10:55:01.488Z,-6.40
2022-12-13T10:57:48.137Z,-6.40
2022-12-13T11:00:34.683Z,-6.30
2022-12-13T11:03:21.416Z,-6.20
2022-12-13T11:06:09.074Z,-6.10
2022-12-13T11:08:55.600Z,-6.10
2022-12-13T11:11:48.157Z,-5.90
2022-12-13T11:14:37.683Z,-5.80
2022-12-13T11:17:28.413Z,-5.70
2022-12-13T11:20:15.016Z,-5.60
2022-12-13T11:23:01.582Z,-5.50
2022-12-13T11:25:48.105Z,-5.40
2022-12-13T11:28:34.664Z,-5.30
2022-12-13T11:31:21.252Z,-5.20
2022-12-13T11:34:07.801Z,-5.00
2022-12-13T11:36:54.342Z,-4.90
2022-12-13T11:39:40.859Z,-4.80
2022-12-13T11:42:27.400Z,-4.70
2022-12-13T11:45:22.436Z,-4.50
2022-12-13T11:48:09.747Z,-4.50
2022-12-13T11:50:56.269Z,-4.30
2022-12-13T11:53:42.820Z,-4.30
2022-12-13T11:56:29.333Z,-4.10
2022-12-13T11:59:23.774Z,-4.00
2022-12-13T12:02:16.491Z,-4.10
2022-12-13T12:05:03.907Z,-4.10
2022-12-13T12:08:21.053Z,-4.00
2022-12-13T12:10:56.997Z,-3.90
2022-12-13T12:13:50.371Z,-3.80
2022-12-13T12:16:38.289Z,-3.70
2022-12-13T12:19:24.832Z,-3.70
2022-12-13T12:22:14.102Z,-3.60
2022-12-13T12:25:01.318Z,-3.40
2022-12-13T12:27:47.861Z,-3.30
2022-12-13T12:30:34.416Z,-3.30
2022-12-13T12:33:20.963Z,-3.30
2022-12-13T12:36:07.486Z,-3.30
2022-12-13T12:38:53.976Z,-3.30
2022-12-13T12:41:45.109Z,-3.20
2022-12-13T12:44:32.278Z,-3.20
2022-12-13T12:50:25.370Z,-3.10
2022-12-13T12:53:12.091Z,-3.20
2022-12-13T12:55:58.630Z,-3.20
2022-12-13T12:58:45.177Z,-3.30
2022-12-13T13:01:37.734Z,-3.40
2022-12-13T13:04:30.325Z,-3.40
2022-12-13T13:07:23.461Z,-3.40
2022-12-13T13:10:15.993Z,-3.40
2022-12-13T13:13:12.694Z,-3.30
2022-12-13T13:15:59.835Z,-3.40
2022-12-13T13:18:46.423Z,-3.40
2022-12-13T13:21:32.963Z,-3.50
2022-12-13T13:24:19.479Z,-3.50
2022-12-13T13:27:06.020Z,-3.60
2022-12-13T13:29:52.493Z,-3.60
2022-12-13T13:32:39.011Z,-3.70
2022-12-13T13:35:25.722Z,-3.80
2022-12-13T13:38:12.274Z,-3.80
2022-12-13T13:40:58.815Z,-3.90
2022-12-13T13:43:45.320Z,-4.10
2022-12-13T13:46:31.926Z,-4.10
2022-12-13T13:49:18.472Z,-4.20
2022-12-13T13:55:11.577Z,-4.40
2022-12-13T13:58:09.261Z,-4.40
2022-12-13T14:00:56.850Z,-4.50
2022-12-13T14:03:44.237Z,-4.60
2022-12-13T14:06:30.994Z,-4.70
2022-12-13T14:09:17.524Z,-4.70
2022-12-13T14:12:04.039Z,-4.80
2022-12-13T14:14:50.590Z,-4.80
2022-12-13T14:17:37.054Z,-4.90
2022-12-13T14:20:23.658Z,-4.90
2022-12-13T14:23:10.184Z,-5.00
2022-12-13T14:25:56.728Z,-5.10
2022-12-13T14:28:43.204Z,-5.20
2022-12-13T14:31:29.758Z,-5.20
2022-12-13T14:34:16.336Z,-5.30
2022-12-13T14:37:02.814Z,-5.40
2022-12-13T14:39:49.338Z,-5.40
2022-12-13T14:42:35.858Z,-5.50
2022-12-13T14:45:22.430Z,-5.60
2022-12-13T14:48:09.065Z,-5.60
2022-12-13T14:50:55.664Z,-5.70
2022-12-13T14:53:42.184Z,-5.70
2022-12-13T14:56:29.355Z,-5.80
2022-12-13T14:59:15.919Z,-5.90
2022-12-13T15:02:02.461Z,-5.90
2022-12-13T15:04:48.969Z,-6.00
2022-12-13T15:07:35.522Z,-6.10
2022-12-13T15:10:23.060Z,-6.10
2022-12-13T15:13:09.578Z,-6.10
2022-12-13T15:15:56.209Z,-6.20
2022-12-13T15:18:42.770Z,-6.20
2022-12-13T15:21:37.269Z,-6.40
2022-12-13T15:24:23.779Z,-6.40
2022-12-13T15:27:10.300Z,-6.40
2022-12-13T15:29:56.811Z,-6.50
2022-12-13T15:32:43.327Z,-6.60
2022-12-13T15:35:29.914Z,-6.60
2022-12-13T15:38:29.062Z,-6.60
2022-12-13T15:41:16.121Z,-6.70
2022-12-13T15:44:02.657Z,-6.80
2022-12-13T15:46:49.167Z,-6.80
2022-12-13T15:49:35.719Z,-6.90
2022-12-13T15:52:22.227Z,-7.00
2022-12-13T15:55:08.761Z,-7.00
2022-12-13T15:57:55.312Z,-7.00
2022-12-13T16:00:41.870Z,-7.10
2022-12-13T16:03:29.966Z,-7.20
2022-12-13T16:06:16.727Z,-7.20
2022-12-13T16:09:03.256Z,-7.30
2022-12-13T16:11:49.766Z,-7.30
2022-12-13T16:14:36.345Z,-7.40
2022-12-13T16:17:22.905Z,-7.40
2022-12-13T16:20:09.929Z,-7.40
2022-12-13T16:22:59.940Z,-7.50
2022-12-13T16:25:46.651Z,-7.50
2022-12-13T16:28:33.166Z,-7.60
2022-12-13T16:31:20.750Z,-7.70
2022-12-13T16:34:07.292Z,-7.70
2022-12-13T16:36:53.807Z,-7.70
2022-12-13T16:39:40.372Z,-7.70
2022-12-13T16:42:27.212Z,-7.70
2022-12-13T16:48:20.380Z,-7.80
2022-12-13T16:51:06.928Z,-7.80
2022-12-13T16:53:53.483Z,-7.80
2022-12-13T16:56:40.018Z,-7.80
2022-12-13T16:59:26.513Z,-7.80
2022-12-13T17:02:13.062Z,-7.80
2022-12-13T17:04:59.613Z,-7.80
2022-12-13T17:07:46.114Z,-7.80
2022-12-13T17:10:32.643Z,-7.90
2022-12-13T17:13:19.147Z,-7.90
2022-12-13T17:16:05.709Z,-7.90
2022-12-13T17:18:52.215Z,-7.90
2022-12-13T17:21:38.803Z,-8.00
2022-12-13T17:24:25.328Z,-8.10
2022-12-13T17:27:11.867Z,-8.10
2022-12-13T17:29:58.423Z,-8.10
2022-12-13T17:32:45.000Z,-8.10
2022-12-13T17:35:31.513Z,-8.20
2022-12-13T17:38:18.065Z,-8.20
2022-12-13T17:41:04.570Z,-8.20
2022-12-13T17:43:51.099Z,-8.30
2022-12-13T17:46:37.655Z,-8.30
2022-12-13T17:49:24.405Z,-8.30
2022-12-13T17:52:10.927Z,-8.30
2022-12-13T17:54:57.489Z,-8.40
2022-12-13T17:57:44.012Z,-8.40
2022-12-13T18:00:30.643Z,-8.40
2022-12-13T18:03:17.194Z,-8.40
2022-12-13T18:06:03.739Z,-8.40
2022-12-13T18:08:50.257Z,-8.50
2022-12-13T18:11:36.806Z,-8.50
2022-12-13T18:14:23.339Z,-8.50
2022-12-13T18:17:09.992Z,-8.60
2022-12-13T18:19:56.534Z,-8.60
2022-12-13T18:22:45.830Z,-8.60
2022-12-13T18:25:36.378Z,-8.60
2022-12-13T18:28:22.888Z,-8.60
2022-12-13T18:31:09.567Z,-8.60
2022-12-13T18:33:56.178Z,-8.60
2022-12-13T18:36:42.704Z,-8.60
2022-12-13T18:39:29.240Z,-8.60
2022-12-13T18:42:15.781Z,-8.60
2022-12-13T18:45:02.301Z,-8.70
2022-12-13T18:47:48.932Z,-8.70
2022-12-13T18:50:35.462Z,-8.70
2022-12-13T18:53:22.011Z,-8.70
2022-12-13T18:56:12.901Z,-8.70
2022-12-13T18:59:04.215Z,-8.70
2022-12-13T19:01:50.793Z,-8.70
2022-12-13T19:04:37.393Z,-8.70
2022-12-13T19:07:23.904Z,-8.70
2022-12-13T19:10:10.429Z,-8.80
2022-12-13T19:12:56.951Z,-8.80
2022-12-13T19:15:43.522Z,-8.80
2022-12-13T19:18:30.059Z,-8.80
2022-12-13T19:21:16.644Z,-8.80
2022-12-13T19:24:03.147Z,-8.90
2022-12-13T19:26:49.737Z,-8.90
2022-12-13T19:29:36.291Z,-8.90
2022-12-13T19:32:22.827Z,-8.80
2022-12-13T19:35:09.340Z,-8.80
2022-12-13T19:37:55.884Z,-8.90
2022-12-13T19:40:42.392Z,-8.80
2022-12-13T19:43:29.564Z,-8.80
2022-12-13T19:46:16.281Z,-8.80
2022-12-13T19:49:02.848Z,-8.80
2022-12-13T19:51:49.364Z,-8.90
2022-12-13T19:54:35.916Z,-8.80
2022-12-13T19:57:22.420Z,-8.90
2022-12-13T20:00:08.945Z,-8.90
2022-12-13T20:02:55.558Z,-9.00
2022-12-13T20:05:45.594Z,-9.00
2022-12-13T20:08:32.446Z,-9.00
2022-12-13T20:11:18.950Z,-9.00
2022-12-13T20:14:05.465Z,-9.10
2022-12-13T20:16:51.988Z,-9.10
2022-12-13T20:19:39.382Z,-9.20
2022-12-13T20:22:25.917Z,-9.10
2022-12-13T20:25:12.393Z,-9.20
2022-12-13T20:27:58.926Z,-9.20
2022-12-13T20:30:45.439Z,-9.20
2022-12-13T20:33:33.616Z,-9.10
2022-12-13T20:36:25.325Z,-9.10
2022-12-13T20:39:12.280Z,-9.10
2022-12-13T20:41:58.838Z,-9.10
2022-12-13T20:44:45.355Z,-9.10
2022-12-13T20:47:35.099Z,-9.20
2022-12-13T20:50:24.286Z,-9.20
2022-12-13T20:53:10.816Z,-9.20
2022-12-13T20:55:57.369Z,-9.20
2022-12-13T20:58:43.880Z,-9.20
2022-12-13T21:01:30.459Z,-9.20
2022-12-13T21:04:17.004Z,-9.30
2022-12-13T21:07:03.490Z,-9.30
2022-12-13T21:09:50.013Z,-9.30
2022-12-13T21:12:36.501Z,-9.30
2022-12-13T21:15:23.064Z,-9.30
2022-12-13T21:18:09.572Z,-9.30
2022-12-13T21:20:56.109Z,-9.30
2022-12-13T21:23:42.795Z,-9.30
2022-12-13T21:26:34.964Z,-9.30
2022-12-13T21:29:23.129Z,-9.40
2022-12-13T21:32:09.707Z,-9.40
2022-12-13T21:34:56.273Z,-9.40
2022-12-13T21:37:42.780Z,-9.40
2022-12-13T21:40:29.329Z,-9.50
2022-12-13T21:43:15.883Z,-9.50
2022-12-13T21:46:02.437Z,-9.50
2022-12-13T21:48:49.003Z,-9.50
2022-12-13T21:51:35.516Z,-9.50
2022-12-13T21:54:22.082Z,-9.40
2022-12-13T21:57:08.603Z,-9.40
2022-12-13T21:59:55.152Z,-9.50
2022-12-13T22:02:42.737Z,-9.50
2022-12-13T22:05:30.375Z,-9.50
2022-12-13T22:08:16.912Z,-9.40
2022-12-13T22:11:03.424Z,-9.40
2022-12-13T22:13:49.965Z,-9.40
2022-12-13T22:16:36.539Z,-9.40
2022-12-13T22:19:23.088Z,-9.40
2022-12-13T22:22:09.569Z,-9.30
2022-12-13T22:24:56.139Z,-9.30
2022-12-13T22:27:42.667Z,-9.30
2022-12-13T22:30:30.209Z,-9.40
2022-12-13T22:33:16.733Z,-9.40
2022-12-13T22:36:04.244Z,-9.40
2022-12-13T22:38:50.760Z,-9.40
2022-12-13T22:41:37.283Z,-9.40
2022-12-13T22:44:23.788Z,-9.40
2022-12-13T22:47:10.330Z,-9.40
2022-12-13T22:49:56.853Z,-9.40
2022-12-13T22:52:43.405Z,-9.40
2022-12-13T22:55:29.923Z,-9.40
2022-12-13T22:58:16.471Z,-9.40
2022-12-13T23:01:03.076Z,-9.40
2022-12-13T23:03:49.668Z,-9.40
2022-12-13T23:06:36.176Z,-9.50
2022-12-13T23:09:22.680Z,-9.40
2022-12-13T23:12:09.201Z,-9.40
2022-12-13T23:14:55.753Z,-9.40
2022-12-13T23:17:42.260Z,-9.40
2022-12-13T23:20:29.825Z,-9.40
2022-12-13T23:23:16.374Z,-9.40
2022-12-13T23:26:02.919Z,-9.40
2022-12-13T23:28:49.418Z,-9.40
2022-12-13T23:31:35.948Z,-9.30
2022-12-13T23:34:22.475Z,-9.20
2022-12-13T23:37:09.017Z,-9.20
2022-12-13T23:39:55.523Z,-9.30
2022-12-13T23:42:42.055Z,-9.20
2022-12-13T23:45:28.559Z,-9.20
2022-12-13T23:48:15.086Z,-9.20
2022-12-13T23:51:01.640Z,-9.20
2022-12-13T23:53:48.113Z,-9.20
2022-12-13T23:56:36.649Z,-9.20
2022-12-13T23:59:23.196Z,-9.30
